sensor_id;sensor_type;location;lat;lon;timestamp;pressure;altitude;pressure_sealevel;temperature;humidity
46023;BME280;31756;47.936;16.224;2023-03-25T00:01:27;97876.66;;;11.55;nan
46023;BME280;31756;47.936;16.224;2023-03-25T00:03:54;97886.47;;;11.43;nan
46023;BME280;31756;47.936;16.224;2023-03-25T00:06:19;97890.84;;;11.40;nan
46023;BME280;31756;47.936;16.224;2023-03-25T00:08:45;97896.19;;;11.34;nan
46023;BME280;31756;47.936;16.224;2023-03-25T00:11:11;97902.47;;;11.25;nan
46023;BME280;31756;47.936;16.224;2023-03-25T00:13:36;97890.53;;;11.24;nan
46023;BME280;31756;47.936;16.224;2023-03-25T00:16:02;97884.66;;;11.21;nan
46023;BME280;31756;47.936;16.224;2023-03-25T00:18:29;97871.22;;;11.14;nan
46023;BME280;31756;47.936;16.224;2023-03-25T00:20:58;97874.78;;;11.10;nan
46023;BME280;31756;47.936;16.224;2023-03-25T00:23:23;97858.72;;;11.04;nan
46023;BME280;31756;47.936;16.224;2023-03-25T00:25:49;97853.66;;;11.02;nan
46023;BME280;31756;47.936;16.224;2023-03-25T00:28:16;97852.09;;;10.98;nan
46023;BME280;31756;47.936;16.224;2023-03-25T00:30:43;97864.19;;;10.94;nan
46023;BME280;31756;47.936;16.224;2023-03-25T00:33:09;97887.19;;;10.96;nan
46023;BME280;31756;47.936;16.224;2023-03-25T00:35:42;97880.44;;;10.93;nan
46023;BME280;31756;47.936;16.224;2023-03-25T00:38:11;97885.69;;;10.90;nan
46023;BME280;31756;47.936;16.224;2023-03-25T00:40:37;97887.44;;;10.88;nan
46023;BME280;31756;47.936;16.224;2023-03-25T00:43:03;97879.78;;;10.87;nan
46023;BME280;31756;47.936;16.224;2023-03-25T00:45:29;97876.34;;;10.88;nan
46023;BME280;31756;47.936;16.224;2023-03-25T00:47:55;97864.25;;;10.91;nan
46023;BME280;31756;47.936;16.224;2023-03-25T00:50:21;97857.41;;;10.92;nan
46023;BME280;31756;47.936;16.224;2023-03-25T00:52:47;97856.53;;;10.93;nan
46023;BME280;31756;47.936;16.224;2023-03-25T00:55:13;97855.69;;;10.92;nan
46023;BME280;31756;47.936;16.224;2023-03-25T00:57:39;97865.69;;;11.00;nan
46023;BME280;31756;47.936;16.224;2023-03-25T01:00:05;97875.69;;;11.08;nan
46023;BME280;31756;47.936;16.224;2023-03-25T01:02:34;97872.47;;;11.03;nan
46023;BME280;31756;47.936;16.224;2023-03-25T01:05:00;97867.41;;;10.99;nan
46023;BME280;31756;47.936;16.224;2023-03-25T01:07:25;97866.69;;;10.96;nan
46023;BME280;31756;47.936;16.224;2023-03-25T01:09:57;97864.53;;;11.09;nan
46023;BME280;31756;47.936;16.224;2023-03-25T01:12:23;97868.78;;;11.10;nan
46023;BME280;31756;47.936;16.224;2023-03-25T01:14:49;97872.34;;;11.06;nan
46023;BME280;31756;47.936;16.224;2023-03-25T01:17:14;97863.94;;;11.02;nan
46023;BME280;31756;47.936;16.224;2023-03-25T01:19:40;97862.28;;;10.99;nan
46023;BME280;31756;47.936;16.224;2023-03-25T01:22:06;97873.88;;;11.11;nan
46023;BME280;31756;47.936;16.224;2023-03-25T01:24:31;97876.88;;;11.24;nan
46023;BME280;31756;47.936;16.224;2023-03-25T01:26:57;97872.16;;;11.61;nan
46023;BME280;31756;47.936;16.224;2023-03-25T01:29:22;97881.06;;;11.76;nan
46023;BME280;31756;47.936;16.224;2023-03-25T01:31:48;97875.09;;;11.99;nan
46023;BME280;31756;47.936;16.224;2023-03-25T01:34:14;97871.94;;;12.14;nan
46023;BME280;31756;47.936;16.224;2023-03-25T01:36:40;97879.59;;;12.15;nan
46023;BME280;31756;47.936;16.224;2023-03-25T01:39:06;97892.41;;;12.17;nan
46023;BME280;31756;47.936;16.224;2023-03-25T01:41:33;97906.81;;;12.21;nan
46023;BME280;31756;47.936;16.224;2023-03-25T01:45:02;97906.56;;;12.27;nan
46023;BME280;31756;47.936;16.224;2023-03-25T01:46:54;97905.72;;;12.26;nan
46023;BME280;31756;47.936;16.224;2023-03-25T01:49:21;97901.38;;;12.28;nan
46023;BME280;31756;47.936;16.224;2023-03-25T01:51:52;97895.69;;;12.20;nan
46023;BME280;31756;47.936;16.224;2023-03-25T01:54:19;97900.03;;;12.18;nan
46023;BME280;31756;47.936;16.224;2023-03-25T01:56:45;97907.16;;;12.12;nan
46023;BME280;31756;47.936;16.224;2023-03-25T01:59:12;97916.22;;;12.22;nan
46023;BME280;31756;47.936;16.224;2023-03-25T02:01:38;97902.19;;;12.30;nan
46023;BME280;31756;47.936;16.224;2023-03-25T02:04:04;97895.56;;;12.23;nan
46023;BME280;31756;47.936;16.224;2023-03-25T02:06:44;97899.81;;;12.24;nan
46023;BME280;31756;47.936;16.224;2023-03-25T02:09:10;97917.16;;;12.19;nan
46023;BME280;31756;47.936;16.224;2023-03-25T02:11:39;97914.53;;;12.21;nan
46023;BME280;31756;47.936;16.224;2023-03-25T02:14:06;97908.50;;;12.22;nan
46023;BME280;31756;47.936;16.224;2023-03-25T02:19:11;97895.16;;;12.12;nan
46023;BME280;31756;47.936;16.224;2023-03-25T02:24:35;97897.75;;;12.11;nan
46023;BME280;31756;47.936;16.224;2023-03-25T02:32:38;97905.13;;;11.97;nan
46023;BME280;31756;47.936;16.224;2023-03-25T02:40:19;97906.13;;;11.93;nan
46023;BME280;31756;47.936;16.224;2023-03-25T02:47:45;97916.69;;;11.85;nan
46023;BME280;31756;47.936;16.224;2023-03-25T02:50:24;97904.00;;;11.80;nan
46023;BME280;31756;47.936;16.224;2023-03-25T02:52:52;97922.06;;;11.79;nan
46023;BME280;31756;47.936;16.224;2023-03-25T02:55:19;97916.16;;;11.75;nan
46023;BME280;31756;47.936;16.224;2023-03-25T02:57:48;97919.69;;;11.71;nan
46023;BME280;31756;47.936;16.224;2023-03-25T03:00:17;97919.81;;;11.68;nan
46023;BME280;31756;47.936;16.224;2023-03-25T03:02:53;97918.22;;;11.66;nan
46023;BME280;31756;47.936;16.224;2023-03-25T03:05:25;97924.06;;;11.69;nan
46023;BME280;31756;47.936;16.224;2023-03-25T03:07:54;97926.06;;;11.61;nan
46023;BME280;31756;47.936;16.224;2023-03-25T03:10:22;97934.91;;;11.53;nan
46023;BME280;31756;47.936;16.224;2023-03-25T03:15:37;97936.03;;;11.45;nan
46023;BME280;31756;47.936;16.224;2023-03-25T03:18:50;97934.97;;;11.51;nan
46023;BME280;31756;47.936;16.224;2023-03-25T03:21:07;97931.03;;;11.41;nan
46023;BME280;31756;47.936;16.224;2023-03-25T03:28:43;97954.19;;;11.39;nan
46023;BME280;31756;47.936;16.224;2023-03-25T03:36:21;97956.31;;;11.27;nan
46023;BME280;31756;47.936;16.224;2023-03-25T03:38:52;97952.88;;;11.28;nan
46023;BME280;31756;47.936;16.224;2023-03-25T03:41:19;97942.34;;;11.35;nan
46023;BME280;31756;47.936;16.224;2023-03-25T03:43:51;97941.47;;;11.36;nan
46023;BME280;31756;47.936;16.224;2023-03-25T03:46:23;97927.13;;;11.29;nan
46023;BME280;31756;47.936;16.224;2023-03-25T03:48:53;97926.28;;;11.29;nan
46023;BME280;31756;47.936;16.224;2023-03-25T03:51:24;97922.75;;;11.33;nan
46023;BME280;31756;47.936;16.224;2023-03-25T03:56:33;97928.13;;;11.25;nan
46023;BME280;31756;47.936;16.224;2023-03-25T03:59:03;97918.81;;;11.23;nan
46023;BME280;31756;47.936;16.224;2023-03-25T04:01:45;97922.41;;;11.17;nan
46023;BME280;31756;47.936;16.224;2023-03-25T04:04:12;97928.53;;;11.13;nan
46023;BME280;31756;47.936;16.224;2023-03-25T04:09:10;97928.59;;;11.12;nan
46023;BME280;31756;47.936;16.224;2023-03-25T04:11:46;97940.31;;;11.19;nan
46023;BME280;31756;47.936;16.224;2023-03-25T04:14:14;97944.47;;;11.23;nan
46023;BME280;31756;47.936;16.224;2023-03-25T04:16:41;97943.59;;;11.24;nan
46023;BME280;31756;47.936;16.224;2023-03-25T04:19:10;97942.81;;;11.20;nan
46023;BME280;31756;47.936;16.224;2023-03-25T04:21:38;97946.94;;;11.26;nan
46023;BME280;31756;47.936;16.224;2023-03-25T04:24:03;97947.06;;;11.21;nan
46023;BME280;31756;47.936;16.224;2023-03-25T04:26:32;97944.31;;;11.27;nan
46023;BME280;31756;47.936;16.224;2023-03-25T04:29:02;97936.72;;;11.24;nan
46023;BME280;31756;47.936;16.224;2023-03-25T04:31:28;97929.97;;;11.22;nan
46023;BME280;31756;47.936;16.224;2023-03-25T04:33:56;97936.66;;;11.26;nan
46023;BME280;31756;47.936;16.224;2023-03-25T04:36:23;97943.66;;;11.21;nan
46023;BME280;31756;47.936;16.224;2023-03-25T04:38:49;97955.72;;;11.19;nan
46023;BME280;31756;47.936;16.224;2023-03-25T04:41:17;97952.47;;;11.14;nan
46023;BME280;31756;47.936;16.224;2023-03-25T04:43:43;97957.63;;;11.12;nan
46023;BME280;31756;47.936;16.224;2023-03-25T04:46:13;97959.47;;;11.09;nan
46023;BME280;31756;47.936;16.224;2023-03-25T04:48:39;97958.63;;;11.08;nan
46023;BME280;31756;47.936;16.224;2023-03-25T04:51:06;97970.66;;;11.06;nan
46023;BME280;31756;47.936;16.224;2023-03-25T04:53:34;97959.84;;;10.96;nan
46023;BME280;31756;47.936;16.224;2023-03-25T04:56:00;97963.28;;;10.95;nan
46023;BME280;31756;47.936;16.224;2023-03-25T04:58:26;97954.47;;;11.04;nan
46023;BME280;31756;47.936;16.224;2023-03-25T05:00:51;97961.13;;;11.10;nan
46023;BME280;31756;47.936;16.224;2023-03-25T05:03:17;97961.03;;;11.13;nan
46023;BME280;31756;47.936;16.224;2023-03-25T05:05:49;97969.13;;;11.27;nan
46023;BME280;31756;47.936;16.224;2023-03-25T05:08:15;97964.47;;;11.38;nan
46023;BME280;31756;47.936;16.224;2023-03-25T05:10:41;97970.53;;;11.37;nan
46023;BME280;31756;47.936;16.224;2023-03-25T05:13:07;97976.91;;;11.50;nan
46023;BME280;31756;47.936;16.224;2023-03-25T05:15:34;97976.13;;;11.48;nan
46023;BME280;31756;47.936;16.224;2023-03-25T05:18:07;97991.28;;;11.56;nan
46023;BME280;31756;47.936;16.224;2023-03-25T05:20:37;97984.56;;;11.52;nan
46023;BME280;31756;47.936;16.224;2023-03-25T05:23:05;97979.53;;;11.49;nan
46023;BME280;31756;47.936;16.224;2023-03-25T05:25:30;97979.47;;;11.50;nan
46023;BME280;31756;47.936;16.224;2023-03-25T05:27:59;97984.69;;;11.49;nan
46023;BME280;31756;47.936;16.224;2023-03-25T05:30:24;97977.13;;;11.44;nan
46023;BME280;31756;47.936;16.224;2023-03-25T05:32:56;97980.78;;;11.37;nan
46023;BME280;31756;47.936;16.224;2023-03-25T05:35:27;97978.28;;;11.35;nan
46023;BME280;31756;47.936;16.224;2023-03-25T05:37:52;97977.25;;;11.41;nan
46023;BME280;31756;47.936;16.224;2023-03-25T05:40:17;97973.81;;;11.40;nan
46023;BME280;31756;47.936;16.224;2023-03-25T05:42:43;97963.44;;;11.43;nan
46023;BME280;31756;47.936;16.224;2023-03-25T05:45:15;97987.25;;;11.49;nan
46023;BME280;31756;47.936;16.224;2023-03-25T05:47:41;97983.00;;;11.48;nan
46023;BME280;31756;47.936;16.224;2023-03-25T05:50:07;97985.81;;;11.40;nan
46023;BME280;31756;47.936;16.224;2023-03-25T05:52:34;97998.66;;;11.40;nan
46023;BME280;31756;47.936;16.224;2023-03-25T05:55:01;98008.22;;;11.35;nan
46023;BME280;31756;47.936;16.224;2023-03-25T05:57:27;98010.78;;;11.35;nan
46023;BME280;31756;47.936;16.224;2023-03-25T05:59:52;98007.44;;;11.33;nan
46023;BME280;31756;47.936;16.224;2023-03-25T06:02:18;98016.53;;;11.41;nan
46023;BME280;31756;47.936;16.224;2023-03-25T06:04:46;98009.69;;;11.42;nan
46023;BME280;31756;47.936;16.224;2023-03-25T06:07:15;98014.53;;;11.51;nan
46023;BME280;31756;47.936;16.224;2023-03-25T06:09:47;98018.78;;;11.52;nan
46023;BME280;31756;47.936;16.224;2023-03-25T06:12:17;98012.78;;;11.53;nan
46023;BME280;31756;47.936;16.224;2023-03-25T06:14:44;98017.59;;;11.62;nan
46023;BME280;31756;47.936;16.224;2023-03-25T06:17:14;98017.28;;;11.71;nan
46023;BME280;31756;47.936;16.224;2023-03-25T06:19:39;98021.41;;;11.77;nan
46023;BME280;31756;47.936;16.224;2023-03-25T06:22:06;98016.91;;;11.83;nan
46023;BME280;31756;47.936;16.224;2023-03-25T06:24:36;98010.09;;;11.82;nan
46023;BME280;31756;47.936;16.224;2023-03-25T06:27:03;98029.69;;;11.85;nan
46023;BME280;31756;47.936;16.224;2023-03-25T06:29:28;98019.34;;;11.88;nan
46023;BME280;31756;47.936;16.224;2023-03-25T06:31:54;98011.44;;;11.93;nan
46023;BME280;31756;47.936;16.224;2023-03-25T06:34:19;98020.78;;;11.95;nan
46023;BME280;31756;47.936;16.224;2023-03-25T06:36:45;98034.38;;;11.99;nan
46023;BME280;31756;47.936;16.224;2023-03-25T06:39:14;98013.78;;;12.00;nan
46023;BME280;31756;47.936;16.224;2023-03-25T06:41:40;98020.41;;;12.06;nan
46023;BME280;31756;47.936;16.224;2023-03-25T06:44:22;98030.34;;;11.92;nan
46023;BME280;31756;47.936;16.224;2023-03-25T06:47:19;98026.47;;;12.05;nan
46023;BME280;31756;47.936;16.224;2023-03-25T06:49:48;98016.97;;;12.07;nan
46023;BME280;31756;47.936;16.224;2023-03-25T06:52:14;98020.63;;;12.00;nan
46023;BME280;31756;47.936;16.224;2023-03-25T06:54:40;98015.66;;;11.95;nan
46023;BME280;31756;47.936;16.224;2023-03-25T06:57:05;98009.47;;;12.01;nan
46023;BME280;31756;47.936;16.224;2023-03-25T06:59:31;98007.56;;;12.06;nan
46023;BME280;31756;47.936;16.224;2023-03-25T07:01:57;98007.69;;;12.03;nan
46023;BME280;31756;47.936;16.224;2023-03-25T07:04:22;98000.69;;;12.06;nan
46023;BME280;31756;47.936;16.224;2023-03-25T07:06:48;97997.41;;;12.03;nan
46023;BME280;31756;47.936;16.224;2023-03-25T07:09:14;97990.50;;;12.05;nan
46023;BME280;31756;47.936;16.224;2023-03-25T07:11:40;97980.81;;;12.11;nan
46023;BME280;31756;47.936;16.224;2023-03-25T07:14:06;97977.25;;;12.15;nan
46023;BME280;31756;47.936;16.224;2023-03-25T07:16:32;97974.63;;;12.17;nan
46023;BME280;31756;47.936;16.224;2023-03-25T07:18:58;97979.09;;;12.12;nan
46023;BME280;31756;47.936;16.224;2023-03-25T07:21:24;97976.38;;;12.16;nan
46023;BME280;31756;47.936;16.224;2023-03-25T07:23:49;97982.22;;;12.20;nan
46023;BME280;31756;47.936;16.224;2023-03-25T07:26:15;97977.88;;;12.22;nan
46023;BME280;31756;47.936;16.224;2023-03-25T07:28:41;97987.25;;;12.23;nan
46023;BME280;31756;47.936;16.224;2023-03-25T07:31:07;97985.41;;;12.26;nan
46023;BME280;31756;47.936;16.224;2023-03-25T07:33:33;97999.16;;;12.25;nan
46023;BME280;31756;47.936;16.224;2023-03-25T07:35:59;97996.44;;;12.30;nan
46023;BME280;31756;47.936;16.224;2023-03-25T07:38:25;97992.34;;;12.24;nan
46023;BME280;31756;47.936;16.224;2023-03-25T07:40:50;97975.91;;;12.28;nan
46023;BME280;31756;47.936;16.224;2023-03-25T07:43:15;97981.06;;;12.28;nan
46023;BME280;31756;47.936;16.224;2023-03-25T07:45:53;97969.66;;;12.35;nan
46023;BME280;31756;47.936;16.224;2023-03-25T07:48:19;97955.31;;;12.30;nan
46023;BME280;31756;47.936;16.224;2023-03-25T07:50:46;97951.94;;;12.28;nan
46023;BME280;31756;47.936;16.224;2023-03-25T07:53:15;97954.41;;;12.31;nan
46023;BME280;31756;47.936;16.224;2023-03-25T07:55:40;97960.53;;;12.27;nan
46023;BME280;31756;47.936;16.224;2023-03-25T07:58:06;97962.41;;;12.23;nan
46023;BME280;31756;47.936;16.224;2023-03-25T08:00:32;97984.00;;;12.18;nan
46023;BME280;31756;47.936;16.224;2023-03-25T08:02:57;97983.19;;;12.17;nan
46023;BME280;31756;47.936;16.224;2023-03-25T08:05:45;97992.06;;;12.09;nan
46023;BME280;31756;47.936;16.224;2023-03-25T08:08:11;97977.56;;;12.06;nan
46023;BME280;31756;47.936;16.224;2023-03-25T08:10:37;98016.28;;;12.02;nan
46023;BME280;31756;47.936;16.224;2023-03-25T08:13:02;97986.34;;;12.01;nan
46023;BME280;31756;47.936;16.224;2023-03-25T08:15:28;98000.09;;;12.00;nan
46023;BME280;31756;47.936;16.224;2023-03-25T08:17:53;97996.78;;;11.96;nan
46023;BME280;31756;47.936;16.224;2023-03-25T08:20:19;97998.97;;;12.07;nan
46023;BME280;31756;47.936;16.224;2023-03-25T08:22:45;97997.19;;;12.09;nan
46023;BME280;31756;47.936;16.224;2023-03-25T08:25:10;98006.91;;;12.01;nan
46023;BME280;31756;47.936;16.224;2023-03-25T08:27:36;98003.81;;;11.91;nan
46023;BME280;31756;47.936;16.224;2023-03-25T08:30:02;97997.09;;;11.87;nan
46023;BME280;31756;47.936;16.224;2023-03-25T08:32:29;97994.38;;;11.92;nan
46023;BME280;31756;47.936;16.224;2023-03-25T08:34:54;98000.28;;;11.94;nan
46023;BME280;31756;47.936;16.224;2023-03-25T08:37:20;97993.31;;;11.97;nan
46023;BME280;31756;47.936;16.224;2023-03-25T08:39:46;97998.56;;;11.94;nan
46023;BME280;31756;47.936;16.224;2023-03-25T08:42:15;98011.22;;;12.00;nan
46023;BME280;31756;47.936;16.224;2023-03-25T08:44:40;98006.22;;;11.96;nan
46023;BME280;31756;47.936;16.224;2023-03-25T08:47:06;98024.56;;;12.10;nan
46023;BME280;31756;47.936;16.224;2023-03-25T08:49:32;98036.41;;;12.14;nan
46023;BME280;31756;47.936;16.224;2023-03-25T08:51:58;98037.34;;;12.11;nan
46023;BME280;31756;47.936;16.224;2023-03-25T08:54:24;98044.28;;;12.09;nan
46023;BME280;31756;47.936;16.224;2023-03-25T08:56:50;98047.44;;;12.17;nan
46023;BME280;31756;47.936;16.224;2023-03-25T08:59:16;98050.72;;;12.21;nan
46023;BME280;31756;47.936;16.224;2023-03-25T09:01:42;98066.34;;;12.15;nan
46023;BME280;31756;47.936;16.224;2023-03-25T09:04:09;98048.47;;;12.12;nan
46023;BME280;31756;47.936;16.224;2023-03-25T09:06:35;98051.31;;;12.29;nan
46023;BME280;31756;47.936;16.224;2023-03-25T09:09:01;98066.03;;;12.24;nan
46023;BME280;31756;47.936;16.224;2023-03-25T09:11:26;98075.06;;;12.11;nan
46023;BME280;31756;47.936;16.224;2023-03-25T09:13:52;98069.75;;;12.15;nan
46023;BME280;31756;47.936;16.224;2023-03-25T09:16:17;98067.88;;;12.20;nan
46023;BME280;31756;47.936;16.224;2023-03-25T09:18:43;98057.78;;;12.39;nan
46023;BME280;31756;47.936;16.224;2023-03-25T09:21:08;98051.69;;;12.42;nan
46023;BME280;31756;47.936;16.224;2023-03-25T09:23:33;98054.84;;;12.50;nan
46023;BME280;31756;47.936;16.224;2023-03-25T09:25:59;98055.31;;;12.36;nan
46023;BME280;31756;47.936;16.224;2023-03-25T09:28:26;98045.59;;;12.44;nan
46023;BME280;31756;47.936;16.224;2023-03-25T09:30:52;98044.75;;;12.68;nan
46023;BME280;31756;47.936;16.224;2023-03-25T09:33:18;98042.88;;;12.72;nan
46023;BME280;31756;47.936;16.224;2023-03-25T09:35:43;98046.97;;;12.54;nan
46023;BME280;31756;47.936;16.224;2023-03-25T09:38:09;98055.75;;;12.72;nan
46023;BME280;31756;47.936;16.224;2023-03-25T09:40:34;98051.50;;;12.71;nan
46023;BME280;31756;47.936;16.224;2023-03-25T09:45:42;98046.13;;;12.77;nan
46023;BME280;31756;47.936;16.224;2023-03-25T09:50:37;98038.88;;;12.87;nan
46023;BME280;31756;47.936;16.224;2023-03-25T09:53:05;98039.97;;;13.03;nan
46023;BME280;31756;47.936;16.224;2023-03-25T09:55:37;98046.75;;;13.05;nan
46023;BME280;31756;47.936;16.224;2023-03-25T09:58:16;98039.25;;;12.99;nan
46023;BME280;31756;47.936;16.224;2023-03-25T10:00:47;98039.97;;;13.03;nan
46023;BME280;31756;47.936;16.224;2023-03-25T10:03:20;98046.72;;;13.07;nan
46023;BME280;31756;47.936;16.224;2023-03-25T10:05:57;98044.31;;;13.24;nan
46023;BME280;31756;47.936;16.224;2023-03-25T10:13:53;98033.41;;;13.41;nan
46023;BME280;31756;47.936;16.224;2023-03-25T10:19:14;98062.59;;;13.18;nan
46023;BME280;31756;47.936;16.224;2023-03-25T10:26:39;98064.81;;;13.04;nan
46023;BME280;31756;47.936;16.224;2023-03-25T10:29:11;98063.81;;;13.08;nan
46023;BME280;31756;47.936;16.224;2023-03-25T10:31:42;98053.81;;;13.00;nan
46023;BME280;31756;47.936;16.224;2023-03-25T10:34:18;98060.09;;;12.93;nan
46023;BME280;31756;47.936;16.224;2023-03-25T10:36:52;98064.16;;;12.99;nan
46023;BME280;31756;47.936;16.224;2023-03-25T10:39:22;98069.53;;;12.93;nan
46023;BME280;31756;47.936;16.224;2023-03-25T10:41:56;98083.25;;;12.93;nan
46023;BME280;31756;47.936;16.224;2023-03-25T10:44:24;98076.06;;;13.01;nan
46023;BME280;31756;47.936;16.224;2023-03-25T10:46:55;98116.38;;;13.02;nan
46023;BME280;31756;47.936;16.224;2023-03-25T10:49:24;98083.41;;;12.89;nan
46023;BME280;31756;47.936;16.224;2023-03-25T10:51:52;98095.66;;;13.05;nan
46023;BME280;31756;47.936;16.224;2023-03-25T10:54:18;98092.28;;;13.03;nan
46023;BME280;31756;47.936;16.224;2023-03-25T10:56:47;98100.41;;;13.16;nan
46023;BME280;31756;47.936;16.224;2023-03-25T10:59:16;98103.63;;;13.22;nan
46023;BME280;31756;47.936;16.224;2023-03-25T11:01:44;98102.06;;;13.18;nan
46023;BME280;31756;47.936;16.224;2023-03-25T11:04:14;98108.59;;;13.27;nan
46023;BME280;31756;47.936;16.224;2023-03-25T11:06:43;98106.94;;;13.24;nan
46023;BME280;31756;47.936;16.224;2023-03-25T11:11:47;98095.47;;;13.33;nan
46023;BME280;31756;47.936;16.224;2023-03-25T11:14:13;98106.56;;;13.35;nan
46023;BME280;31756;47.936;16.224;2023-03-25T11:16:41;98085.41;;;13.27;nan
46023;BME280;31756;47.936;16.224;2023-03-25T11:19:09;98087.88;;;13.30;nan
46023;BME280;31756;47.936;16.224;2023-03-25T11:21:38;98086.72;;;13.37;nan
46023;BME280;31756;47.936;16.224;2023-03-25T11:24:04;98076.19;;;13.21;nan
46023;BME280;31756;47.936;16.224;2023-03-25T11:26:37;98080.97;;;13.31;nan
46023;BME280;31756;47.936;16.224;2023-03-25T11:29:07;98084.94;;;13.61;nan
46023;BME280;31756;47.936;16.224;2023-03-25T11:31:33;98077.69;;;13.70;nan
46023;BME280;31756;47.936;16.224;2023-03-25T11:36:29;98060.13;;;13.58;nan
46023;BME280;31756;47.936;16.224;2023-03-25T11:39:00;98055.56;;;13.65;nan
46023;BME280;31756;47.936;16.224;2023-03-25T11:41:29;98041.09;;;14.03;nan
46023;BME280;31756;47.936;16.224;2023-03-25T11:43:55;98036.78;;;14.24;nan
46023;BME280;31756;47.936;16.224;2023-03-25T11:46:21;98028.56;;;14.34;nan
46023;BME280;31756;47.936;16.224;2023-03-25T11:48:48;98027.31;;;14.24;nan
46023;BME280;31756;47.936;16.224;2023-03-25T11:51:19;98020.81;;;14.34;nan
46023;BME280;31756;47.936;16.224;2023-03-25T11:53:45;98020.47;;;14.43;nan
46023;BME280;31756;47.936;16.224;2023-03-25T11:56:14;98010.59;;;14.72;nan
46023;BME280;31756;47.936;16.224;2023-03-25T11:58:41;98010.97;;;14.44;nan
46023;BME280;31756;47.936;16.224;2023-03-25T12:01:11;98014.19;;;14.49;nan
46023;BME280;31756;47.936;16.224;2023-03-25T12:03:44;98001.16;;;14.52;nan
46023;BME280;31756;47.936;16.224;2023-03-25T12:08:43;97989.03;;;14.54;nan
46023;BME280;31756;47.936;16.224;2023-03-25T12:16:43;97976.97;;;14.54;nan
46023;BME280;31756;47.936;16.224;2023-03-25T12:19:27;97981.84;;;14.60;nan
46023;BME280;31756;47.936;16.224;2023-03-25T12:22:08;97981.72;;;14.63;nan
46023;BME280;31756;47.936;16.224;2023-03-25T12:24:51;97981.28;;;14.73;nan
46023;BME280;31756;47.936;16.224;2023-03-25T12:27:33;97978.59;;;14.76;nan
46023;BME280;31756;47.936;16.224;2023-03-25T12:45:22;97957.84;;;14.77;nan
46023;BME280;31756;47.936;16.224;2023-03-25T13:00:52;97952.09;;;14.53;nan
46023;BME280;31756;47.936;16.224;2023-03-25T13:05:59;97953.13;;;14.49;nan
46023;BME280;31756;47.936;16.224;2023-03-25T13:09:11;97958.97;;;14.53;nan
46023;BME280;31756;47.936;16.224;2023-03-25T13:11:20;97946.69;;;14.77;nan
46023;BME280;31756;47.936;16.224;2023-03-25T13:13:47;97946.13;;;14.89;nan
46023;BME280;31756;47.936;16.224;2023-03-25T13:16:19;97948.75;;;15.06;nan
46023;BME280;31756;47.936;16.224;2023-03-25T13:21:15;97937.22;;;15.13;nan
46023;BME280;31756;47.936;16.224;2023-03-25T13:23:45;97938.09;;;14.95;nan
46023;BME280;31756;47.936;16.224;2023-03-25T13:26:16;97939.25;;;15.06;nan
46023;BME280;31756;47.936;16.224;2023-03-25T13:28:44;97932.25;;;14.91;nan
46023;BME280;31756;47.936;16.224;2023-03-25T13:31:13;97943.16;;;14.60;nan
46023;BME280;31756;47.936;16.224;2023-03-25T13:33:41;97931.00;;;14.81;nan
46023;BME280;31756;47.936;16.224;2023-03-25T13:38:55;97932.44;;;14.87;nan
46023;BME280;31756;47.936;16.224;2023-03-25T13:46:12;97935.88;;;14.87;nan
46023;BME280;31756;47.936;16.224;2023-03-25T13:51:12;97935.81;;;14.89;nan
46023;BME280;31756;47.936;16.224;2023-03-25T14:03:52;97933.03;;;14.56;nan
46023;BME280;31756;47.936;16.224;2023-03-25T14:06:37;97931.03;;;14.62;nan
46023;BME280;31756;47.936;16.224;2023-03-25T14:14:22;97932.81;;;14.60;nan
46023;BME280;31756;47.936;16.224;2023-03-25T14:16:52;97925.03;;;14.81;nan
46023;BME280;31756;47.936;16.224;2023-03-25T14:19:25;97934.66;;;14.94;nan
46023;BME280;31756;47.936;16.224;2023-03-25T14:21:52;97923.22;;;15.00;nan
46023;BME280;31756;47.936;16.224;2023-03-25T14:24:21;97913.34;;;15.08;nan
46023;BME280;31756;47.936;16.224;2023-03-25T14:26:53;97913.97;;;15.13;nan
46023;BME280;31756;47.936;16.224;2023-03-25T14:32:33;97915.94;;;15.08;nan
46023;BME280;31756;47.936;16.224;2023-03-25T14:37:43;97917.41;;;14.78;nan
46023;BME280;31756;47.936;16.224;2023-03-25T14:48:41;97917.41;;;14.78;nan
46023;BME280;31756;47.936;16.224;2023-03-25T14:51:21;97912.84;;;14.47;nan
46023;BME280;31756;47.936;16.224;2023-03-25T14:54:00;97916.97;;;14.51;nan
46023;BME280;31756;47.936;16.224;2023-03-25T14:56:34;97907.13;;;14.40;nan
46023;BME280;31756;47.936;16.224;2023-03-25T14:59:03;97914.22;;;14.35;nan
46023;BME280;31756;47.936;16.224;2023-03-25T15:01:35;97917.66;;;14.34;nan
46023;BME280;31756;47.936;16.224;2023-03-25T15:04:14;97907.34;;;14.54;nan
46023;BME280;31756;47.936;16.224;2023-03-25T15:06:41;97914.72;;;14.62;nan
46023;BME280;31756;47.936;16.224;2023-03-25T15:09:08;97915.91;;;14.55;nan
46023;BME280;31756;47.936;16.224;2023-03-25T15:11:37;97907.69;;;14.47;nan
46023;BME280;31756;47.936;16.224;2023-03-25T15:14:05;97905.13;;;14.27;nan
46023;BME280;31756;47.936;16.224;2023-03-25T15:16:36;97906.88;;;14.26;nan
46023;BME280;31756;47.936;16.224;2023-03-25T15:19:03;97907.06;;;14.22;nan
46023;BME280;31756;47.936;16.224;2023-03-25T15:21:31;97891.69;;;14.20;nan
46023;BME280;31756;47.936;16.224;2023-03-25T15:24:02;97884.66;;;14.24;nan
46023;BME280;31756;47.936;16.224;2023-03-25T15:26:30;97893.78;;;14.31;nan
46023;BME280;31756;47.936;16.224;2023-03-25T15:34:22;97880.75;;;14.34;nan
46023;BME280;31756;47.936;16.224;2023-03-25T15:52:18;97899.00;;;14.10;nan
46023;BME280;31756;47.936;16.224;2023-03-25T15:54:53;97914.03;;;14.01;nan
46023;BME280;31756;47.936;16.224;2023-03-25T16:05:03;97912.59;;;14.89;nan
46023;BME280;31756;47.936;16.224;2023-03-25T16:07:30;97907.59;;;14.67;nan
46023;BME280;31756;47.936;16.224;2023-03-25T16:10:12;97910.44;;;14.80;nan